Time;durP1;ratioP1;P1;durP2;ratioP2;P2;SDS_P1;SDS_P2;PMS_P1;PMS_P2;Temp;Humidity;BMP_temperature;BMP_pressure;BME280_temperature;BME280_humidity;BME280_pressure;Samples;Min_cycle;Max_cycle;Signal;HPM_P1;HPM_P2
2021/05/04 00:01:22;;;;;;;11.68;8.43;;;;;;;4.78;100.00;99750.88;5132035;28;20065;-81
2021/05/04 00:03:48;;;;;;;12.50;9.98;;;;;;;4.72;100.00;99761.19;5132842;27;20035;-81
2021/05/04 00:06:15;;;;;;;13.60;10.38;;;;;;;4.68;100.00;99738.97;5131760;28;20034;-81
2021/05/04 00:08:44;;;;;;;14.75;9.50;;;;;;;4.65;100.00;99722.72;5129904;28;20087;-81
2021/05/04 00:11:09;;;;;;;13.93;9.32;;;;;;;4.60;100.00;99721.03;5130911;28;20024;-81
2021/05/04 00:13:34;;;;;;;12.48;9.48;;;;;;;4.60;100.00;99712.50;5132171;28;20046;-81
2021/05/04 00:16:00;;;;;;;12.57;9.95;;;;;;;4.54;100.00;99702.28;5130188;28;20023;-81
2021/05/04 00:18:25;;;;;;;12.73;9.65;;;;;;;4.51;100.00;99697.16;5130921;28;20031;-81
2021/05/04 00:20:50;;;;;;;13.32;10.13;;;;;;;4.47;100.00;99685.22;5131364;28;20008;-81
2021/05/04 00:23:16;;;;;;;14.65;10.45;;;;;;;4.44;100.00;99674.97;5132787;28;20023;-81
2021/05/04 00:25:44;;;;;;;14.23;10.80;;;;;;;4.39;100.00;99669.84;5131146;28;20030;-81
2021/05/04 00:28:10;;;;;;;14.43;10.02;;;;;;;4.38;100.00;99663.88;5130240;28;20060;-81
2021/05/04 00:30:39;;;;;;;16.45;9.77;;;;;;;4.43;100.00;99650.97;5131425;28;20091;-81
2021/05/04 00:33:04;;;;;;;13.90;9.90;;;;;;;4.54;100.00;99643.22;5131817;28;20024;-81
2021/05/04 00:35:30;;;;;;;13.40;9.52;;;;;;;4.56;100.00;99632.06;5131131;28;20031;-81
2021/05/04 00:38:03;;;;;;;13.88;9.60;;;;;;;4.61;100.00;99624.31;5131227;28;20106;-81
2021/05/04 00:40:31;;;;;;;13.32;8.85;;;;;;;4.66;100.00;99620.00;5130470;28;20023;-81
2021/05/04 00:42:58;;;;;;;13.23;9.32;;;;;;;4.64;100.00;99616.56;5131688;28;20014;-81
2021/05/04 00:45:23;;;;;;;15.38;8.85;;;;;;;4.65;100.00;99602.88;5131290;28;20030;-81
2021/05/04 00:47:51;;;;;;;13.63;10.23;;;;;;;4.68;100.00;99602.84;5130471;28;20027;-81
2021/05/04 00:50:19;;;;;;;12.25;8.43;;;;;;;4.67;100.00;99590.84;5130632;28;20037;-81
2021/05/04 00:52:48;;;;;;;14.50;9.00;;;;;;;4.69;100.00;99586.56;5131751;28;20023;-81
2021/05/04 00:55:17;;;;;;;12.20;8.57;;;;;;;4.71;100.00;99579.72;5130597;28;20047;-81
2021/05/04 00:57:43;;;;;;;11.45;7.82;;;;;;;4.71;100.00;99564.31;5131806;28;20003;-81
2021/05/04 01:00:12;;;;;;;11.60;8.13;;;;;;;4.72;100.00;99554.88;5130181;28;20031;-81
2021/05/04 01:02:40;;;;;;;13.55;9.27;;;;;;;4.71;100.00;99548.00;5131129;28;20065;-81
2021/05/04 01:05:09;;;;;;;14.05;8.85;;;;;;;4.71;100.00;99537.75;5130663;28;20033;-81
2021/05/04 01:07:35;;;;;;;13.05;9.23;;;;;;;4.74;100.00;99533.44;5132843;28;20023;-81
2021/05/04 01:10:00;;;;;;;9.38;6.53;;;;;;;4.96;95.62;99531.47;5138032;28;20156;-81
2021/05/04 01:12:29;;;;;;;11.88;8.13;;;;;;;4.90;99.40;99540.97;5138060;27;20091;-81
2021/05/04 01:14:59;;;;;;;11.55;7.93;;;;;;;4.84;100.00;99524.75;5137614;28;20007;-81
2021/05/04 01:17:25;;;;;;;10.15;7.28;;;;;;;4.84;99.70;99519.63;5137413;28;20047;-81
2021/05/04 01:19:55;;;;;;;11.20;6.90;;;;;;;4.93;97.83;99517.81;5137801;28;20024;-81
2021/05/04 01:22:21;;;;;;;10.30;6.72;;;;;;;5.08;94.63;99507.34;5137157;28;20030;-81
2021/05/04 01:24:49;;;;;;;9.85;7.43;;;;;;;5.03;97.38;99491.13;5136050;28;20106;-80
2021/05/04 01:27:15;;;;;;;10.32;6.18;;;;;;;5.15;94.40;99487.56;5137477;28;20065;-80
2021/05/04 01:29:41;;;;;;;10.32;6.93;;;;;;;5.05;96.58;99486.84;5136389;28;20032;-80
2021/05/04 01:32:08;;;;;;;11.27;7.07;;;;;;;5.03;97.48;99478.28;5137261;28;20015;-81
2021/05/04 01:34:35;;;;;;;10.10;6.68;;;;;;;5.08;94.46;99461.94;5137706;28;20023;-81
2021/05/04 01:37:00;;;;;;;9.43;6.00;;;;;;;5.09;93.74;99452.50;5137185;28;20012;-81
2021/05/04 01:39:52;;;;;;;8.82;5.45;;;;;;;5.02;96.17;99445.75;5137993;28;20093;-81
2021/05/04 01:42:22;;;;;;;9.80;5.85;;;;;;;5.06;93.71;99429.41;5134619;27;20027;-80
2021/05/04 01:44:50;;;;;;;9.63;5.70;;;;;;;5.04;94.59;99424.28;5137864;28;20007;-80
2021/05/04 01:47:16;;;;;;;8.90;6.13;;;;;;;5.06;94.00;99403.72;5137427;28;20034;-81
2021/05/04 01:49:42;;;;;;;8.55;5.78;;;;;;;5.06;92.90;99381.44;5135973;28;20441;-81
2021/05/04 01:52:10;;;;;;;9.30;5.88;;;;;;;5.10;92.40;99383.97;5136346;28;20065;-81
2021/05/04 01:54:49;;;;;;;9.40;5.78;;;;;;;5.10;93.12;99371.94;5137007;28;20092;-81
2021/05/04 01:57:22;;;;;;;9.57;5.82;;;;;;;5.11;93.12;99362.50;5135244;28;20012;-81
2021/05/04 01:59:59;;;;;;;9.07;5.05;;;;;;;5.21;91.16;99356.38;5136649;28;20011;-81
2021/05/04 02:02:26;;;;;;;8.07;5.03;;;;;;;5.20;92.42;99354.66;5136807;28;20027;-81
2021/05/04 02:04:53;;;;;;;7.93;5.50;;;;;;;5.27;89.93;99341.69;5136124;28;20079;-81
2021/05/04 02:07:21;;;;;;;8.10;5.18;;;;;;;5.29;90.83;99332.22;5137053;28;20023;-81
2021/05/04 02:09:58;;;;;;;10.70;4.95;;;;;;;5.16;92.28;99323.03;5137017;28;20051;-81
2021/05/04 02:12:24;;;;;;;12.02;5.18;;;;;;;5.11;94.37;99322.28;5136800;28;20008;-81
2021/05/04 02:14:50;;;;;;;8.65;5.38;;;;;;;5.11;94.59;99326.53;5136489;28;20038;-80
2021/05/04 02:17:19;;;;;;;8.38;4.53;;;;;;;5.07;92.90;99310.31;5135426;28;20061;-81
2021/05/04 02:19:47;;;;;;;8.68;5.10;;;;;;;5.06;94.11;99291.50;5134967;28;20011;-82
2021/05/04 02:22:17;;;;;;;8.43;4.60;;;;;;;5.22;91.16;99270.66;5137137;28;20118;-82
2021/05/04 02:24:44;;;;;;;8.65;5.07;;;;;;;5.15;92.95;99251.09;5136629;28;20085;-81
2021/05/04 02:27:12;;;;;;;7.28;4.65;;;;;;;5.15;93.50;99241.66;5135280;28;20000;-81
2021/05/04 02:29:37;;;;;;;7.32;4.60;;;;;;;5.13;95.27;99227.97;5134480;28;20425;-81
2021/05/04 02:32:12;;;;;;;8.30;4.93;;;;;;;5.11;93.67;99209.19;5136945;28;20023;-81
2021/05/04 02:34:37;;;;;;;10.00;4.45;;;;;;;5.09;92.76;99195.50;5136307;28;20043;-81
2021/05/04 02:37:03;;;;;;;9.70;4.80;;;;;;;5.07;94.99;99189.53;5135659;28;20025;-80
2021/05/04 02:39:37;;;;;;;7.65;4.88;;;;;;;5.11;94.87;99168.06;5135343;28;20026;-81
2021/05/04 02:42:06;;;;;;;8.18;4.55;;;;;;;5.11;92.78;99173.22;5136396;28;20079;-81
2021/05/04 02:44:43;;;;;;;7.88;4.68;;;;;;;5.07;95.49;99176.69;5135848;28;20020;-81
2021/05/04 02:47:15;;;;;;;8.57;5.30;;;;;;;5.00;97.12;99162.28;5135839;28;20024;-81
2021/05/04 02:49:49;;;;;;;9.93;5.25;;;;;;;4.92;97.16;99161.56;5135799;28;20026;-82
2021/05/04 02:52:28;;;;;;;8.23;4.70;;;;;;;4.92;96.23;99130.72;5136093;28;20011;-81
2021/05/04 02:54:53;;;;;;;10.18;5.22;;;;;;;4.96;95.74;99127.25;5136174;28;20030;-81
2021/05/04 02:57:19;;;;;;;9.30;6.03;;;;;;;4.95;95.18;99120.38;5136276;28;20111;-82
2021/05/04 02:59:51;;;;;;;8.30;4.93;;;;;;;4.94;97.10;99113.56;5134630;28;20046;-80
2021/05/04 03:02:16;;;;;;;7.93;4.93;;;;;;;4.93;96.49;99097.31;5137432;22;20492;-77
2021/05/04 03:04:42;;;;;;;7.93;4.68;;;;;;;5.06;94.35;99091.06;5112241;28;20026;-78
2021/05/04 03:07:08;;;;;;;7.32;3.97;;;;;;;5.12;92.74;99084.13;5112709;28;20023;-78
2021/05/04 03:09:34;;;;;;;11.32;4.38;;;;;;;5.23;91.05;99075.31;5116557;28;20012;-78
2021/05/04 03:11:59;;;;;;;6.95;3.97;;;;;;;5.35;89.91;99068.22;5116480;28;20436;-78
2021/05/04 03:14:25;;;;;;;7.65;3.78;;;;;;;5.55;89.25;99066.06;5117864;27;20110;-78
2021/05/04 03:16:51;;;;;;;7.57;3.72;;;;;;;5.65;88.22;99054.69;5116463;28;20479;-78
2021/05/04 03:19:16;;;;;;;7.03;3.30;;;;;;;5.78;85.10;99042.38;5117798;28;20028;-78
2021/05/04 03:21:41;;;;;;;11.75;3.70;;;;;;;5.85;84.67;99046.53;5116186;28;20414;-78
2021/05/04 03:24:07;;;;;;;6.85;3.20;;;;;;;5.96;81.52;99044.56;5116209;28;20114;-77
2021/05/04 03:26:32;;;;;;;7.30;3.38;;;;;;;6.11;81.61;99038.19;5117573;28;20043;-78
2021/05/04 03:28:57;;;;;;;7.20;3.80;;;;;;;6.01;83.49;99051.34;5116216;28;20088;-78
2021/05/04 03:31:23;;;;;;;7.32;3.13;;;;;;;6.39;78.06;99011.75;5116246;28;20027;-77
2021/05/04 03:33:48;;;;;;;6.78;3.45;;;;;;;6.34;80.51;99024.75;5117506;28;20024;-78
2021/05/04 03:36:14;;;;;;;8.77;3.20;;;;;;;6.33;79.79;99009.34;5116107;28;20028;-78
2021/05/04 03:38:39;;;;;;;6.90;3.33;;;;;;;6.23;81.55;98988.13;5116001;28;20084;-78
2021/05/04 03:41:05;;;;;;;7.47;3.63;;;;;;;6.22;81.76;98968.44;5117231;28;20019;-79
2021/05/04 03:43:30;;;;;;;6.72;3.28;;;;;;;6.15;82.47;98954.84;5115930;28;20390;-78
2021/05/04 03:45:55;;;;;;;8.00;3.55;;;;;;;6.20;83.25;98947.03;5115863;28;20049;-78
2021/05/04 03:48:21;;;;;;;6.38;3.25;;;;;;;6.18;82.65;98939.34;5115832;28;20031;-78
2021/05/04 03:50:47;;;;;;;6.00;3.22;;;;;;;6.40;79.96;98936.19;5116898;28;20099;-78
2021/05/04 03:53:13;;;;;;;6.68;2.85;;;;;;;6.32;81.46;98938.97;5115662;28;20047;-78
2021/05/04 03:55:38;;;;;;;5.80;2.65;;;;;;;6.47;80.05;98929.16;5116912;28;20476;-77
2021/05/04 03:58:04;;;;;;;6.03;3.00;;;;;;;6.57;78.80;98930.59;5117415;28;20027;-78
2021/05/04 04:00:29;;;;;;;5.90;2.47;;;;;;;6.63;76.73;98920.94;5115321;28;20111;-78
2021/05/04 04:02:54;;;;;;;5.40;2.58;;;;;;;6.94;74.46;98927.78;5117500;28;20027;-78
2021/05/04 04:05:20;;;;;;;5.38;2.20;;;;;;;6.87;76.86;98918.56;5116689;28;20020;-78
2021/05/04 04:07:45;;;;;;;5.00;2.20;;;;;;;6.79;78.89;98931.66;5116714;28;20051;-78
2021/05/04 04:10:12;;;;;;;8.15;2.15;;;;;;;7.19;72.88;98906.41;5115431;28;20016;-78
2021/05/04 04:12:37;;;;;;;7.20;2.60;;;;;;;7.20;73.17;98910.66;5115332;28;20023;-78
2021/05/04 04:15:03;;;;;;;5.82;2.30;;;;;;;7.08;73.51;98912.75;5115650;28;20020;-78
2021/05/04 04:17:28;;;;;;;6.07;2.38;;;;;;;6.97;76.69;98912.22;5116628;28;20023;-78
2021/05/04 04:19:53;;;;;;;5.78;2.17;;;;;;;6.90;76.79;98909.00;5115252;28;20024;-78
2021/05/04 04:22:19;;;;;;;5.03;2.00;;;;;;;7.01;75.87;98906.06;5115360;28;20026;-78
2021/05/04 04:24:44;;;;;;;4.60;2.22;;;;;;;7.08;76.60;98897.28;5116544;28;20077;-78
2021/05/04 04:27:10;;;;;;;4.60;2.20;;;;;;;7.17;76.71;98869.50;5114981;28;20321;-78
2021/05/04 04:29:35;;;;;;;7.10;2.67;;;;;;;7.17;78.64;98888.41;5115315;28;20016;-78
2021/05/04 04:32:04;;;;;;;4.72;2.00;;;;;;;7.20;77.86;98869.41;5116658;28;20459;-78
2021/05/04 04:34:29;;;;;;;6.38;2.72;;;;;;;7.01;80.34;98885.47;5116274;28;20019;-78
2021/05/04 04:36:55;;;;;;;4.82;2.40;;;;;;;6.95;80.74;98870.19;5114962;28;20026;-78
2021/05/04 04:39:21;;;;;;;6.78;2.60;;;;;;;6.91;82.62;98874.59;5116203;28;20062;-77
2021/05/04 04:41:46;;;;;;;5.90;2.70;;;;;;;6.99;82.34;98855.47;5115973;28;20043;-77
2021/05/04 04:44:11;;;;;;;5.45;2.55;;;;;;;6.84;85.04;98859.38;5116239;28;20055;-77
2021/05/04 04:46:40;;;;;;;7.88;3.00;;;;;;;6.83;85.19;98857.66;5116185;28;20036;-77
2021/05/04 04:49:10;;;;;;;4.93;2.35;;;;;;;6.77;86.57;98850.97;5115917;28;20364;-77
2021/05/04 04:51:35;;;;;;;5.20;2.38;;;;;;;6.77;86.23;98860.44;5115900;28;20027;-78
2021/05/04 04:54:01;;;;;;;6.47;2.70;;;;;;;6.72;86.88;98850.28;5114872;28;20447;-78
2021/05/04 04:56:26;;;;;;;6.28;3.05;;;;;;;6.64;90.60;98853.06;5114693;28;20049;-78
2021/05/04 04:58:52;;;;;;;5.97;3.13;;;;;;;6.55;89.61;98835.31;5116174;28;20027;-78
2021/05/04 05:01:17;;;;;;;7.63;3.20;;;;;;;6.62;90.98;98825.66;5114583;28;20028;-78
2021/05/04 05:03:42;;;;;;;7.65;2.83;;;;;;;6.58;90.51;98824.91;5116481;28;20023;-79
2021/05/04 05:06:07;;;;;;;8.80;3.92;;;;;;;6.54;90.93;98819.91;5114735;28;20114;-78
2021/05/04 05:08:33;;;;;;;6.43;3.22;;;;;;;6.51;91.82;98831.16;5115937;28;20034;-78
2021/05/04 05:10:58;;;;;;;8.38;3.45;;;;;;;6.45;93.43;98827.00;5116262;28;20058;-78
2021/05/04 05:13:23;;;;;;;7.97;3.83;;;;;;;6.41;94.99;98820.28;5116491;28;20031;-78
2021/05/04 05:15:48;;;;;;;5.97;2.92;;;;;;;6.36;94.71;98813.56;5115726;28;20028;-79
2021/05/04 05:18:13;;;;;;;5.93;3.42;;;;;;;6.34;96.73;98813.63;5116138;28;20028;-78
2021/05/04 05:20:39;;;;;;;7.05;3.05;;;;;;;6.32;96.22;98806.84;5114325;28;20019;-78
2021/05/04 05:23:10;;;;;;;6.03;3.53;;;;;;;6.29;97.60;98802.59;5116156;28;20020;-79
2021/05/04 05:25:36;;;;;;;7.57;3.28;;;;;;;6.29;97.63;98792.31;5116425;28;20091;-79
2021/05/04 05:28:01;;;;;;;8.38;3.75;;;;;;;6.16;99.38;98778.97;5116184;28;20500;-80
2021/05/04 05:30:26;;;;;;;6.85;3.20;;;;;;;6.12;100.00;98776.50;5114166;28;20023;-79
2021/05/04 05:32:52;;;;;;;7.80;3.40;;;;;;;6.07;100.00;98765.53;5113602;28;20016;-78
2021/05/04 05:35:17;;;;;;;6.82;3.30;;;;;;;6.10;100.00;98771.41;5115253;28;20027;-78
2021/05/04 05:37:42;;;;;;;6.63;2.92;;;;;;;6.03;100.00;98764.75;5115658;28;20034;-78
2021/05/04 05:40:08;;;;;;;7.28;3.50;;;;;;;6.08;100.00;98762.88;5113639;28;20102;-78
2021/05/04 05:42:33;;;;;;;7.28;3.42;;;;;;;6.09;100.00;98756.00;5115451;28;20368;-78
2021/05/04 05:44:59;;;;;;;10.30;3.85;;;;;;;6.02;100.00;98751.94;5115230;28;20066;-78
2021/05/04 05:47:24;;;;;;;6.10;2.72;;;;;;;6.04;100.00;98752.75;5113789;28;20391;-79
2021/05/04 05:49:49;;;;;;;5.95;3.22;;;;;;;5.95;100.00;98753.84;5115656;28;20107;-79
2021/05/04 05:52:15;;;;;;;5.25;2.58;;;;;;;5.96;100.00;98752.94;5113761;28;20468;-79
2021/05/04 05:54:40;;;;;;;6.45;2.65;;;;;;;5.94;100.00;98741.84;5115137;28;20496;-79
2021/05/04 05:57:05;;;;;;;7.05;2.58;;;;;;;5.95;100.00;98736.66;5115929;28;20020;-79
2021/05/04 05:59:31;;;;;;;7.63;3.20;;;;;;;5.97;100.00;98719.47;5114047;28;20032;-79
2021/05/04 06:01:56;;;;;;;8.75;3.38;;;;;;;5.99;100.00;98719.41;5115032;28;20173;-79
2021/05/04 06:04:21;;;;;;;7.30;3.00;;;;;;;6.02;100.00;98709.03;5115258;28;20030;-79
2021/05/04 06:06:47;;;;;;;6.85;3.17;;;;;;;6.02;100.00;98710.75;5113971;28;20024;-79
2021/05/04 06:09:12;;;;;;;7.88;4.00;;;;;;;6.07;100.00;98703.75;5113504;28;20106;-79
2021/05/04 06:11:37;;;;;;;5.68;2.95;;;;;;;6.19;100.00;98704.22;5114870;28;20102;-79
2021/05/04 06:14:03;;;;;;;9.60;3.00;;;;;;;6.31;100.00;98694.41;5114271;28;20031;-80
2021/05/04 06:16:28;;;;;;;6.85;2.80;;;;;;;6.40;100.00;98691.56;5114420;28;20096;-80
2021/05/04 06:18:54;;;;;;;9.23;3.53;;;;;;;6.28;100.00;98690.22;5115542;28;20434;-80
2021/05/04 06:21:19;;;;;;;6.65;2.70;;;;;;;6.33;100.00;98682.34;5116587;28;20053;-80
2021/05/04 06:23:45;;;;;;;7.25;3.35;;;;;;;6.31;100.00;98681.53;5115515;28;20024;-81
2021/05/04 06:26:10;;;;;;;6.10;2.70;;;;;;;6.25;100.00;98686.88;5115995;28;20452;-81
2021/05/04 06:28:36;;;;;;;7.20;2.92;;;;;;;6.14;100.00;98671.78;5116978;28;20487;-80
2021/05/04 06:31:03;;;;;;;7.97;3.38;;;;;;;6.19;100.00;98662.19;5115246;28;20016;-80
2021/05/04 06:33:28;;;;;;;5.88;3.00;;;;;;;6.15;100.00;98668.31;5116320;28;20098;-80
2021/05/04 06:35:53;;;;;;;5.78;2.88;;;;;;;6.07;100.00;98660.84;5114974;28;20455;-80
2021/05/04 06:38:19;;;;;;;6.53;3.38;;;;;;;6.23;100.00;98654.31;5117452;28;20037;-79
2021/05/04 06:40:46;;;;;;;6.68;3.20;;;;;;;6.33;100.00;98656.59;5114008;28;20024;-79
2021/05/04 06:43:12;;;;;;;6.75;2.80;;;;;;;6.44;100.00;98641.66;5113742;28;20077;-80
2021/05/04 06:45:38;;;;;;;6.00;3.40;;;;;;;6.36;100.00;98652.19;5115178;28;20019;-80
2021/05/04 06:48:04;;;;;;;8.73;2.97;;;;;;;6.51;100.00;98640.56;5115368;28;20387;-79
2021/05/04 06:50:30;;;;;;;6.50;3.45;;;;;;;6.55;100.00;98637.00;5116362;28;20027;-79
2021/05/04 06:52:55;;;;;;;9.20;4.50;;;;;;;6.85;100.00;98632.56;5114213;28;20118;-79
2021/05/04 06:55:21;;;;;;;5.78;2.92;;;;;;;6.86;100.00;98618.75;5116252;28;20081;-79
2021/05/04 06:57:46;;;;;;;7.78;3.90;;;;;;;7.19;100.00;98622.81;5114336;28;20019;-80
2021/05/04 07:00:13;;;;;;;7.07;3.47;;;;;;;7.38;100.00;98622.06;5116285;28;20023;-80
2021/05/04 07:02:39;;;;;;;9.13;3.22;;;;;;;7.09;100.00;98610.25;5115681;28;20084;-79
2021/05/04 07:05:06;;;;;;;9.15;2.88;;;;;;;7.18;100.00;98603.09;5115715;28;20019;-79
2021/05/04 07:07:31;;;;;;;6.65;2.50;;;;;;;7.19;100.00;98592.72;5114536;28;20025;-80
2021/05/04 07:09:56;;;;;;;6.45;2.33;;;;;;;7.50;100.00;98600.16;5116106;28;20019;-79
2021/05/04 07:12:22;;;;;;;5.13;2.53;;;;;;;7.38;100.00;98585.13;5114353;28;20118;-80
2021/05/04 07:14:47;;;;;;;4.53;2.10;;;;;;;7.38;99.23;98593.72;5115671;28;20392;-80
2021/05/04 07:17:12;;;;;;;6.68;2.55;;;;;;;7.64;99.93;98585.91;5115863;28;20034;-79
2021/05/04 07:19:39;;;;;;;5.40;2.58;;;;;;;7.36;99.32;98589.53;5113913;28;20028;-80
2021/05/04 07:22:07;;;;;;;5.75;2.45;;;;;;;7.17;98.59;98589.34;5115816;28;20472;-79
2021/05/04 07:24:33;;;;;;;7.47;2.65;;;;;;;7.10;98.12;98572.41;5113467;28;20031;-79
2021/05/04 07:26:58;;;;;;;10.15;2.80;;;;;;;7.23;100.00;98570.22;5114069;28;20395;-80
2021/05/04 07:29:23;;;;;;;8.80;2.92;;;;;;;7.41;98.91;98568.72;5115356;28;20131;-80
2021/05/04 07:31:48;;;;;;;5.00;2.22;;;;;;;7.38;98.50;98569.66;5115877;28;20027;-80
2021/05/04 07:34:14;;;;;;;5.88;1.90;;;;;;;7.25;98.45;98558.13;5114064;28;20604;-79
2021/05/04 07:36:39;;;;;;;5.78;2.03;;;;;;;7.28;97.50;98552.84;5113889;28;20023;-80
2021/05/04 07:39:05;;;;;;;3.63;1.70;;;;;;;7.29;97.24;98549.38;5113549;28;20019;-79
2021/05/04 07:41:31;;;;;;;6.95;2.20;;;;;;;7.38;97.39;98547.28;5114439;28;20030;-80
2021/05/04 07:43:56;;;;;;;4.95;1.52;;;;;;;7.64;96.42;98550.63;5113888;28;20114;-80
2021/05/04 07:46:22;;;;;;;4.65;1.67;;;;;;;7.46;95.03;98539.28;5115745;28;20458;-80
2021/05/04 07:48:48;;;;;;;4.13;1.73;;;;;;;7.48;96.08;98547.81;5115110;28;20033;-80
2021/05/04 07:51:13;;;;;;;6.60;2.67;;;;;;;7.50;97.66;98545.16;5114909;28;20024;-80
2021/05/04 07:53:38;;;;;;;7.38;1.52;;;;;;;7.42;96.83;98544.59;5115921;28;20372;-80
2021/05/04 07:56:04;;;;;;;4.00;1.42;;;;;;;7.35;97.82;98537.09;5118101;28;20031;-80
2021/05/04 07:58:31;;;;;;;4.68;1.77;;;;;;;7.35;98.98;98547.41;5118247;28;20486;-79
2021/05/04 08:00:56;;;;;;;4.18;1.80;;;;;;;7.32;100.00;98549.25;5116659;28;20023;-79
2021/05/04 08:03:21;;;;;;;4.18;1.63;;;;;;;7.29;100.00;98542.47;5117270;28;20224;-79
2021/05/04 08:05:47;;;;;;;5.63;1.50;;;;;;;7.23;99.52;98549.59;5117423;28;20440;-79
2021/05/04 08:08:13;;;;;;;5.78;1.92;;;;;;;7.21;99.65;98535.94;5115916;28;20027;-79
2021/05/04 08:10:40;;;;;;;5.70;2.08;;;;;;;7.28;100.00;98537.38;5115673;28;20102;-79
2021/05/04 08:13:05;;;;;;;3.95;1.60;;;;;;;7.30;98.81;98528.69;5117062;28;20034;-79
2021/05/04 08:15:31;;;;;;;3.72;1.50;;;;;;;7.47;98.87;98512.56;5115489;28;20028;-79
2021/05/04 08:17:59;;;;;;;4.07;1.60;;;;;;;7.41;97.19;98517.13;5117449;28;20019;-79
2021/05/04 08:20:29;;;;;;;4.82;1.85;;;;;;;7.60;96.76;98498.31;5115825;28;20097;-80
2021/05/04 08:22:55;;;;;;;5.60;1.65;;;;;;;7.77;95.86;98500.22;5116154;28;20027;-79
2021/05/04 08:25:20;;;;;;;4.47;1.77;;;;;;;7.78;95.99;98507.06;5116757;28;20026;-79
2021/05/04 08:27:46;;;;;;;4.88;1.83;;;;;;;7.79;95.56;98502.75;5116801;28;20024;-79
2021/05/04 08:30:12;;;;;;;4.45;1.40;;;;;;;8.00;93.89;98512.19;5118003;28;20051;-79
2021/05/04 08:32:37;;;;;;;4.20;1.70;;;;;;;8.15;95.56;98500.38;5116967;28;20020;-79
2021/05/04 08:35:03;;;;;;;4.68;1.52;;;;;;;8.27;91.74;98491.28;5116809;28;20115;-80
2021/05/04 08:37:28;;;;;;;4.82;1.60;;;;;;;8.30;89.91;98496.34;5118312;28;20396;-79
2021/05/04 08:39:54;;;;;;;4.57;1.48;;;;;;;8.30;90.61;98504.91;5116205;28;20023;-79
2021/05/04 08:42:19;;;;;;;5.70;1.45;;;;;;;8.15;91.84;98499.56;5115978;28;20019;-79
2021/05/04 08:44:50;;;;;;;6.05;1.67;;;;;;;8.20;93.40;98480.41;5116353;28;20024;-79
2021/05/04 08:47:17;;;;;;;3.97;1.40;;;;;;;8.22;93.59;98496.66;5116482;28;20020;-79
2021/05/04 08:49:43;;;;;;;3.95;1.50;;;;;;;8.16;94.43;98496.94;5117362;28;20015;-79
2021/05/04 08:52:08;;;;;;;4.05;1.50;;;;;;;8.32;95.73;98491.97;5117358;28;20023;-79
2021/05/04 08:54:33;;;;;;;5.20;1.35;;;;;;;8.56;94.09;98484.06;5116302;28;20030;-79
2021/05/04 08:56:59;;;;;;;5.82;1.58;;;;;;;8.12;94.32;98489.34;5117516;28;20024;-81
2021/05/04 08:59:24;;;;;;;4.63;1.50;;;;;;;7.96;95.43;98484.00;5115550;28;20027;-80
2021/05/04 09:01:49;;;;;;;5.95;1.60;;;;;;;7.97;97.46;98478.75;5141273;22;20043;-84
2021/05/04 09:04:48;;;;;;;5.82;1.60;;;;;;;7.83;96.69;98481.06;5123436;28;20411;-84
2021/05/04 09:07:17;;;;;;;3.97;1.20;;;;;;;7.69;97.44;98465.28;5104341;28;20042;-81
2021/05/04 09:10:18;;;;;;;5.55;1.75;;;;;;;7.59;97.81;98463.09;5123506;28;20020;-80
2021/05/04 09:12:49;;;;;;;4.53;1.40;;;;;;;7.64;95.84;98456.91;5106893;28;20024;-80
2021/05/04 09:18:40;;;;;;;4.65;1.50;;;;;;;7.78;94.58;98444.28;5126901;28;20122;-81
2021/05/04 09:21:08;;;;;;;7.18;1.52;;;;;;;7.94;93.20;98450.47;5127179;28;20020;-81
2021/05/04 09:23:35;;;;;;;3.15;1.20;;;;;;;8.06;89.94;98438.81;5111292;28;20020;-80
2021/05/04 09:26:01;;;;;;;4.57;1.20;;;;;;;8.16;90.38;98444.41;5102643;28;20054;-80
2021/05/04 09:28:26;;;;;;;3.10;1.15;;;;;;;8.26;90.16;98433.66;5122259;28;20375;-79
2021/05/04 09:30:57;;;;;;;6.00;1.20;;;;;;;8.25;89.98;98444.03;5123550;28;20020;-80
2021/05/04 09:33:23;;;;;;;3.58;0.80;;;;;;;8.34;87.66;98440.22;5104952;28;20086;-80
2021/05/04 09:35:49;;;;;;;1.75;0.75;;;;;;;8.40;85.82;98433.06;5104886;28;20376;-80
2021/05/04 09:38:16;;;;;;;5.18;0.90;;;;;;;8.39;86.88;98407.31;5125904;28;20023;-80
2021/05/04 09:40:47;;;;;;;2.22;0.90;;;;;;;8.47;86.24;98444.00;5107698;28;20026;-81
2021/05/04 09:43:26;;;;;;;2.92;1.10;;;;;;;8.51;85.07;98432.63;5107034;28;20027;-80
2021/05/04 09:45:58;;;;;;;4.45;1.30;;;;;;;8.55;86.28;98412.66;5127486;28;20370;-80
2021/05/04 09:48:30;;;;;;;4.30;0.90;;;;;;;8.44;85.80;98407.97;5106100;28;20140;-83
2021/05/04 09:51:16;;;;;;;4.53;1.00;;;;;;;8.43;86.23;98422.59;5122687;28;20079;-81
2021/05/04 09:53:59;;;;;;;4.10;1.00;;;;;;;8.38;86.27;98414.25;5105650;28;20023;-80
2021/05/04 09:56:33;;;;;;;4.55;1.00;;;;;;;8.46;86.29;98408.72;5104330;28;20027;-80
2021/05/04 09:58:58;;;;;;;3.90;0.85;;;;;;;8.46;85.11;98401.81;5124627;28;20075;-80
2021/05/04 10:01:23;;;;;;;4.43;1.15;;;;;;;8.44;85.02;98413.13;5105951;28;20123;-81
2021/05/04 10:03:51;;;;;;;3.97;1.17;;;;;;;8.38;85.60;98393.56;5106555;28;20073;-80
2021/05/04 10:06:18;;;;;;;3.72;1.17;;;;;;;8.44;84.89;98398.47;5107700;28;20051;-80
2021/05/04 10:08:45;;;;;;;5.03;1.02;;;;;;;8.44;86.13;98401.06;5129789;28;20019;-80
2021/05/04 10:11:13;;;;;;;6.20;1.33;;;;;;;8.43;86.80;98406.28;5104429;28;20027;-81
2021/05/04 10:13:40;;;;;;;4.03;1.45;;;;;;;8.48;86.59;98386.25;5103909;28;20026;-80
2021/05/04 10:16:07;;;;;;;4.53;1.20;;;;;;;8.44;86.16;98385.56;5122603;28;20119;-80
2021/05/04 10:18:33;;;;;;;4.53;1.50;;;;;;;8.53;85.75;98379.16;5104349;28;20111;-80
2021/05/04 10:21:00;;;;;;;14.10;1.45;;;;;;;8.59;84.06;98384.03;5106129;28;20047;-81
2021/05/04 10:23:27;;;;;;;3.55;1.20;;;;;;;8.67;83.80;98383.66;5106989;28;20041;-80
2021/05/04 10:25:57;;;;;;;3.10;1.10;;;;;;;8.66;82.59;98384.59;5107631;28;20035;-81
2021/05/04 10:28:28;;;;;;;2.67;0.90;;;;;;;8.73;82.31;98380.81;5114053;28;20023;-81
2021/05/04 10:30:58;;;;;;;5.07;1.20;;;;;;;8.80;82.84;98377.03;5132180;28;20440;-81
2021/05/04 10:33:39;;;;;;;5.60;1.10;;;;;;;8.91;81.10;98399.81;5115128;28;20364;-81
2021/05/04 10:36:06;;;;;;;2.65;0.93;;;;;;;9.01;81.95;98388.13;5117918;28;20043;-81
2021/05/04 10:38:52;;;;;;;5.43;0.88;;;;;;;9.41;81.20;98379.28;5118395;28;20027;-81
2021/05/04 10:41:17;;;;;;;4.78;1.30;;;;;;;9.40;80.38;98381.97;5135502;28;20023;-81
2021/05/04 10:43:43;;;;;;;4.28;1.13;;;;;;;9.47;80.89;98382.50;5134559;28;20059;-82
2021/05/04 10:46:29;;;;;;;4.57;1.02;;;;;;;9.43;82.14;98377.47;5134218;28;20020;-82
2021/05/04 10:48:54;;;;;;;4.32;1.10;;;;;;;10.16;79.59;98379.91;5107083;28;20444;-79
2021/05/04 10:51:44;;;;;;;5.78;1.63;;;;;;;10.48;75.70;98369.63;5117556;28;20111;-78
2021/05/04 10:54:10;;;;;;;7.80;2.50;;;;;;;10.23;76.75;98388.19;5118885;28;20028;-79
2021/05/04 10:57:23;;;;;;;6.82;2.15;;;;;;;10.84;76.30;98374.59;5118917;28;20031;-79
2021/05/04 10:59:51;;;;;;;7.70;2.08;;;;;;;10.43;74.28;98382.81;5124525;28;20050;-79
2021/05/04 11:02:19;;;;;;;6.15;1.50;;;;;;;10.91;74.63;98375.09;5100736;28;20051;-78
2021/05/04 11:04:47;;;;;;;4.07;1.42;;;;;;;10.33;74.14;98360.91;5120769;28;20098;-78
2021/05/04 11:07:13;;;;;;;4.30;1.20;;;;;;;10.36;74.90;98358.16;5117764;28;20390;-78
2021/05/04 11:09:44;;;;;;;4.85;1.20;;;;;;;10.73;74.45;98364.81;5123763;28;20055;-79
2021/05/04 11:12:36;;;;;;;5.00;1.80;;;;;;;10.90;74.41;98347.47;5108006;28;20065;-79
2021/05/04 11:15:26;;;;;;;3.53;1.27;;;;;;;10.50;74.43;98355.69;5107004;28;20110;-79
2021/05/04 11:17:51;;;;;;;3.28;1.02;;;;;;;11.81;70.97;98336.22;5118522;28;20056;-78
2021/05/04 11:20:37;;;;;;;5.30;1.10;;;;;;;11.22;74.71;98335.31;5096847;28;20035;-78
2021/05/04 11:23:05;;;;;;;2.97;0.80;;;;;;;11.44;74.38;98353.09;5117215;28;20053;-79
2021/05/04 11:25:34;;;;;;;3.25;0.93;;;;;;;11.53;74.81;98345.63;5120659;28;20035;-79
2021/05/04 11:28:00;;;;;;;2.90;0.80;;;;;;;11.54;73.85;98336.06;5098736;28;20027;-78
2021/05/04 11:30:37;;;;;;;3.60;0.93;;;;;;;10.95;75.08;98343.72;5122556;28;20599;-79
2021/05/04 11:33:29;;;;;;;4.22;0.73;;;;;;;10.49;76.77;98356.56;5123032;28;20030;-79
2021/05/04 11:35:54;;;;;;;3.08;0.90;;;;;;;10.29;78.31;98351.63;5105090;28;20029;-79
2021/05/04 11:38:22;;;;;;;4.70;1.02;;;;;;;10.27;78.60;98341.34;5104272;28;20061;-78
2021/05/04 11:40:47;;;;;;;3.28;1.17;;;;;;;10.13;79.46;98338.63;5121293;28;20020;-79
2021/05/04 11:43:17;;;;;;;5.05;1.65;;;;;;;12.15;73.85;98337.66;5102045;28;20022;-79